Dixmoor, Illinois
Current Conditions -  °F | °C
As of 10:29 AM on Monday 24 Nov 2014 (Local Time) from KMDW Reporting Station
Light Snow Light Snow  
Wind Chill: 23°   Ceiling: 900
Heat Index: 36°   Visibility: 1.7mi
Dew Point: 33°   Wind: 29mph
Humidity: 89%   Direction: 250°WSW
Pressure: 29.27"   Gusts: 35mph
Location:  41.6641°N, 87.6855°W
Report Text: KMDW 241629Z 25025G30KT 1 3/4SM -SN BR BKN009 OVC014 02/01 A2927 RMK AO2 PK WND 24030/1629 RAE29SNB11 PRESRR P0003 T00220006
Loading
Personal Weather Stations






























Interactive Weather Map New forecast layout! Learn more

10-Day Weather Forecast

Advertisements
Track Severe Weather on mobile